sensor_id;sensor_type;location;lat;lon;timestamp;temperature;humidity
7512;DHT22;9999;48.780;9.146;2023-02-01T00:00:11;3.40;99.90
7512;DHT22;9999;48.780;9.146;2023-02-01T00:02:38;3.40;99.90
7512;DHT22;9999;48.780;9.146;2023-02-01T00:05:07;3.50;99.90
7512;DHT22;9999;48.780;9.146;2023-02-01T00:07:34;3.50;99.90
7512;DHT22;9999;48.780;9.146;2023-02-01T00:10:02;3.40;99.90
7512;DHT22;9999;48.780;9.146;2023-02-01T00:12:29;3.50;99.90
7512;DHT22;9999;48.780;9.146;2023-02-01T00:14:56;3.40;99.90
7512;DHT22;9999;48.780;9.146;2023-02-01T00:17:23;3.40;99.90
7512;DHT22;9999;48.780;9.146;2023-02-01T00:19:50;3.40;99.90
7512;DHT22;9999;48.780;9.146;2023-02-01T00:22:16;3.40;99.90
7512;DHT22;9999;48.780;9.146;2023-02-01T00:24:43;3.40;99.90
7512;DHT22;9999;48.780;9.146;2023-02-01T00:27:11;3.40;99.90
7512;DHT22;9999;48.780;9.146;2023-02-01T00:29:43;3.40;99.90
7512;DHT22;9999;48.780;9.146;2023-02-01T00:32:11;3.40;99.90
7512;DHT22;9999;48.780;9.146;2023-02-01T00:34:38;3.40;99.90
7512;DHT22;9999;48.780;9.146;2023-02-01T00:37:04;3.40;99.90
7512;DHT22;9999;48.780;9.146;2023-02-01T00:39:31;3.50;99.90
7512;DHT22;9999;48.780;9.146;2023-02-01T00:41:59;3.50;99.90
7512;DHT22;9999;48.780;9.146;2023-02-01T00:44:28;3.50;99.90
7512;DHT22;9999;48.780;9.146;2023-02-01T00:46:59;3.50;99.90
7512;DHT22;9999;48.780;9.146;2023-02-01T00:49:25;3.50;99.90
7512;DHT22;9999;48.780;9.146;2023-02-01T00:51:52;3.50;99.90
7512;DHT22;9999;48.780;9.146;2023-02-01T00:54:19;3.50;99.90
7512;DHT22;9999;48.780;9.146;2023-02-01T00:56:46;3.60;99.90
7512;DHT22;9999;48.780;9.146;2023-02-01T00:59:13;3.60;99.90
7512;DHT22;9999;48.780;9.146;2023-02-01T01:01:41;3.60;99.90
7512;DHT22;9999;48.780;9.146;2023-02-01T01:04:09;3.60;99.90
7512;DHT22;9999;48.780;9.146;2023-02-01T01:06:35;3.60;99.90
7512;DHT22;9999;48.780;9.146;2023-02-01T01:09:04;3.50;99.90
7512;DHT22;9999;48.780;9.146;2023-02-01T01:11:33;3.50;99.90
7512;DHT22;9999;48.780;9.146;2023-02-01T01:14:00;3.50;99.90
7512;DHT22;9999;48.780;9.146;2023-02-01T01:16:29;3.60;99.90
7512;DHT22;9999;48.780;9.146;2023-02-01T01:18:58;3.50;99.90
7512;DHT22;9999;48.780;9.146;2023-02-01T01:21:26;3.50;99.90
7512;DHT22;9999;48.780;9.146;2023-02-01T01:23:53;3.50;99.90
7512;DHT22;9999;48.780;9.146;2023-02-01T01:26:22;3.50;99.90
7512;DHT22;9999;48.780;9.146;2023-02-01T01:28:49;3.50;99.90
7512;DHT22;9999;48.780;9.146;2023-02-01T01:31:17;3.50;99.90
7512;DHT22;9999;48.780;9.146;2023-02-01T01:33:47;3.50;99.90
7512;DHT22;9999;48.780;9.146;2023-02-01T01:36:16;3.60;99.90
7512;DHT22;9999;48.780;9.146;2023-02-01T01:38:43;3.60;99.90
7512;DHT22;9999;48.780;9.146;2023-02-01T01:41:14;3.60;99.90
7512;DHT22;9999;48.780;9.146;2023-02-01T01:43:51;3.60;99.90
7512;DHT22;9999;48.780;9.146;2023-02-01T01:46:21;3.50;99.90
7512;DHT22;9999;48.780;9.146;2023-02-01T01:48:50;3.60;99.90
7512;DHT22;9999;48.780;9.146;2023-02-01T01:51:23;3.60;99.90
7512;DHT22;9999;48.780;9.146;2023-02-01T01:53:58;3.50;99.90
7512;DHT22;9999;48.780;9.146;2023-02-01T01:56:26;3.50;99.90
7512;DHT22;9999;48.780;9.146;2023-02-01T01:58:55;3.50;99.90
7512;DHT22;9999;48.780;9.146;2023-02-01T02:01:22;3.50;99.90
7512;DHT22;9999;48.780;9.146;2023-02-01T02:03:50;3.50;99.90
7512;DHT22;9999;48.780;9.146;2023-02-01T02:06:26;3.50;99.90
7512;DHT22;9999;48.780;9.146;2023-02-01T02:08:54;3.60;99.90
7512;DHT22;9999;48.780;9.146;2023-02-01T02:11:21;3.60;99.90
7512;DHT22;9999;48.780;9.146;2023-02-01T02:13:49;3.50;99.90
7512;DHT22;9999;48.780;9.146;2023-02-01T02:16:30;3.60;99.90
7512;DHT22;9999;48.780;9.146;2023-02-01T02:19:22;3.60;99.90
7512;DHT22;9999;48.780;9.146;2023-02-01T02:22:16;3.60;99.90
7512;DHT22;9999;48.780;9.146;2023-02-01T02:25:18;3.60;99.90
7512;DHT22;9999;48.780;9.146;2023-02-01T02:27:51;3.60;99.90
7512;DHT22;9999;48.780;9.146;2023-02-01T02:30:35;3.60;99.90
7512;DHT22;9999;48.780;9.146;2023-02-01T02:33:39;3.60;99.90
7512;DHT22;9999;48.780;9.146;2023-02-01T02:36:13;3.60;99.90
7512;DHT22;9999;48.780;9.146;2023-02-01T02:38:49;3.60;99.90
7512;DHT22;9999;48.780;9.146;2023-02-01T02:41:20;3.70;99.90
7512;DHT22;9999;48.780;9.146;2023-02-01T02:44:12;3.60;99.90
7512;DHT22;9999;48.780;9.146;2023-02-01T02:47:02;3.60;99.90
7512;DHT22;9999;48.780;9.146;2023-02-01T02:49:54;3.60;99.90
7512;DHT22;9999;48.780;9.146;2023-02-01T02:52:42;3.60;99.90
7512;DHT22;9999;48.780;9.146;2023-02-01T02:55:29;3.60;99.90
7512;DHT22;9999;48.780;9.146;2023-02-01T02:57:57;3.60;99.90
7512;DHT22;9999;48.780;9.146;2023-02-01T03:00:43;3.60;99.90
7512;DHT22;9999;48.780;9.146;2023-02-01T03:03:28;3.50;99.90
7512;DHT22;9999;48.780;9.146;2023-02-01T03:06:16;3.50;99.90
7512;DHT22;9999;48.780;9.146;2023-02-01T03:08:44;3.60;99.90
7512;DHT22;9999;48.780;9.146;2023-02-01T03:11:13;3.50;99.90
7512;DHT22;9999;48.780;9.146;2023-02-01T03:13:45;3.50;99.90
7512;DHT22;9999;48.780;9.146;2023-02-01T03:16:18;3.50;99.90
7512;DHT22;9999;48.780;9.146;2023-02-01T03:18:56;3.50;99.90
7512;DHT22;9999;48.780;9.146;2023-02-01T03:21:30;3.40;99.90
7512;DHT22;9999;48.780;9.146;2023-02-01T03:24:02;3.50;99.90
7512;DHT22;9999;48.780;9.146;2023-02-01T03:26:31;3.50;99.90
7512;DHT22;9999;48.780;9.146;2023-02-01T03:29:05;3.50;99.90
7512;DHT22;9999;48.780;9.146;2023-02-01T03:31:35;3.50;99.90
7512;DHT22;9999;48.780;9.146;2023-02-01T03:34:02;3.50;99.90
7512;DHT22;9999;48.780;9.146;2023-02-01T03:36:37;3.40;99.90
7512;DHT22;9999;48.780;9.146;2023-02-01T03:39:13;3.50;99.90
7512;DHT22;9999;48.780;9.146;2023-02-01T03:41:43;3.50;99.90
7512;DHT22;9999;48.780;9.146;2023-02-01T03:44:15;3.50;99.90
7512;DHT22;9999;48.780;9.146;2023-02-01T03:46:48;3.40;99.90
7512;DHT22;9999;48.780;9.146;2023-02-01T03:49:20;3.50;99.90
7512;DHT22;9999;48.780;9.146;2023-02-01T03:51:51;3.50;99.90
7512;DHT22;9999;48.780;9.146;2023-02-01T03:54:18;3.50;99.90
7512;DHT22;9999;48.780;9.146;2023-02-01T03:56:47;3.50;99.90
7512;DHT22;9999;48.780;9.146;2023-02-01T03:59:15;3.50;99.90
7512;DHT22;9999;48.780;9.146;2023-02-01T04:01:42;3.50;99.90
7512;DHT22;9999;48.780;9.146;2023-02-01T04:04:09;3.50;99.90
7512;DHT22;9999;48.780;9.146;2023-02-01T04:06:37;3.50;99.90
7512;DHT22;9999;48.780;9.146;2023-02-01T04:09:06;3.50;99.90
7512;DHT22;9999;48.780;9.146;2023-02-01T04:11:33;3.50;99.90
7512;DHT22;9999;48.780;9.146;2023-02-01T04:13:59;3.50;99.90
7512;DHT22;9999;48.780;9.146;2023-02-01T04:16:29;3.50;99.90
7512;DHT22;9999;48.780;9.146;2023-02-01T04:18:56;3.50;99.90
7512;DHT22;9999;48.780;9.146;2023-02-01T04:21:25;3.50;99.90
7512;DHT22;9999;48.780;9.146;2023-02-01T04:23:53;3.50;99.90
7512;DHT22;9999;48.780;9.146;2023-02-01T04:26:21;3.50;99.90
7512;DHT22;9999;48.780;9.146;2023-02-01T04:28:48;3.60;99.90
7512;DHT22;9999;48.780;9.146;2023-02-01T04:31:15;3.60;99.90
7512;DHT22;9999;48.780;9.146;2023-02-01T04:33:42;3.60;99.90
7512;DHT22;9999;48.780;9.146;2023-02-01T04:36:09;3.60;99.90
7512;DHT22;9999;48.780;9.146;2023-02-01T04:38:36;3.60;99.90
7512;DHT22;9999;48.780;9.146;2023-02-01T04:41:03;3.60;99.90
7512;DHT22;9999;48.780;9.146;2023-02-01T04:43:31;3.60;99.90
7512;DHT22;9999;48.780;9.146;2023-02-01T04:45:58;3.60;99.90
7512;DHT22;9999;48.780;9.146;2023-02-01T04:48:24;3.70;99.90
7512;DHT22;9999;48.780;9.146;2023-02-01T04:50:51;3.60;99.90
7512;DHT22;9999;48.780;9.146;2023-02-01T04:53:18;3.60;99.90
7512;DHT22;9999;48.780;9.146;2023-02-01T04:55:47;3.60;99.90
7512;DHT22;9999;48.780;9.146;2023-02-01T04:58:14;3.60;99.90
7512;DHT22;9999;48.780;9.146;2023-02-01T05:00:42;3.70;99.90
7512;DHT22;9999;48.780;9.146;2023-02-01T05:03:09;3.70;99.90
7512;DHT22;9999;48.780;9.146;2023-02-01T05:05:36;3.70;99.90
7512;DHT22;9999;48.780;9.146;2023-02-01T05:08:03;3.70;99.90
7512;DHT22;9999;48.780;9.146;2023-02-01T05:10:30;3.70;99.90
7512;DHT22;9999;48.780;9.146;2023-02-01T05:12:56;3.70;99.90
7512;DHT22;9999;48.780;9.146;2023-02-01T05:15:42;3.70;99.90
7512;DHT22;9999;48.780;9.146;2023-02-01T05:18:09;3.80;99.90
7512;DHT22;9999;48.780;9.146;2023-02-01T05:20:35;3.80;99.90
7512;DHT22;9999;48.780;9.146;2023-02-01T05:23:02;3.70;99.90
7512;DHT22;9999;48.780;9.146;2023-02-01T05:25:29;3.80;99.90
7512;DHT22;9999;48.780;9.146;2023-02-01T05:27:56;3.80;99.90
7512;DHT22;9999;48.780;9.146;2023-02-01T05:30:23;3.80;99.90
7512;DHT22;9999;48.780;9.146;2023-02-01T05:32:52;3.80;99.90
7512;DHT22;9999;48.780;9.146;2023-02-01T05:35:19;3.80;99.90
7512;DHT22;9999;48.780;9.146;2023-02-01T05:37:46;3.80;99.90
7512;DHT22;9999;48.780;9.146;2023-02-01T05:40:13;3.80;99.90
7512;DHT22;9999;48.780;9.146;2023-02-01T05:42:39;3.80;99.90
7512;DHT22;9999;48.780;9.146;2023-02-01T05:45:07;3.80;99.90
7512;DHT22;9999;48.780;9.146;2023-02-01T05:47:34;3.80;99.90
7512;DHT22;9999;48.780;9.146;2023-02-01T05:50:03;3.80;99.90
7512;DHT22;9999;48.780;9.146;2023-02-01T05:52:31;3.80;99.90
7512;DHT22;9999;48.780;9.146;2023-02-01T05:54:57;3.80;99.90
7512;DHT22;9999;48.780;9.146;2023-02-01T05:57:24;3.80;99.90
7512;DHT22;9999;48.780;9.146;2023-02-01T05:59:51;3.80;99.90
7512;DHT22;9999;48.780;9.146;2023-02-01T06:02:18;3.70;99.90
7512;DHT22;9999;48.780;9.146;2023-02-01T06:04:44;3.60;99.90
7512;DHT22;9999;48.780;9.146;2023-02-01T06:07:12;3.60;99.90
7512;DHT22;9999;48.780;9.146;2023-02-01T06:09:39;3.50;99.90
7512;DHT22;9999;48.780;9.146;2023-02-01T06:12:06;3.50;99.90
7512;DHT22;9999;48.780;9.146;2023-02-01T06:14:33;3.50;99.90
7512;DHT22;9999;48.780;9.146;2023-02-01T06:17:00;3.50;99.90
7512;DHT22;9999;48.780;9.146;2023-02-01T06:19:27;3.60;99.90
7512;DHT22;9999;48.780;9.146;2023-02-01T06:21:54;3.60;99.90
7512;DHT22;9999;48.780;9.146;2023-02-01T06:24:22;3.60;99.90
7512;DHT22;9999;48.780;9.146;2023-02-01T06:26:48;3.60;99.90
7512;DHT22;9999;48.780;9.146;2023-02-01T06:29:15;3.60;99.90
7512;DHT22;9999;48.780;9.146;2023-02-01T06:31:42;3.70;99.90
7512;DHT22;9999;48.780;9.146;2023-02-01T06:34:09;3.60;99.90
7512;DHT22;9999;48.780;9.146;2023-02-01T06:36:36;3.60;99.90
7512;DHT22;9999;48.780;9.146;2023-02-01T06:39:03;3.60;99.90
7512;DHT22;9999;48.780;9.146;2023-02-01T06:41:31;3.60;99.90
7512;DHT22;9999;48.780;9.146;2023-02-01T06:44:00;3.60;99.90
7512;DHT22;9999;48.780;9.146;2023-02-01T06:46:27;3.60;99.90
7512;DHT22;9999;48.780;9.146;2023-02-01T06:48:53;3.60;99.90
7512;DHT22;9999;48.780;9.146;2023-02-01T06:51:22;3.70;99.90
7512;DHT22;9999;48.780;9.146;2023-02-01T06:53:49;3.70;99.90
7512;DHT22;9999;48.780;9.146;2023-02-01T06:56:17;3.70;99.90
7512;DHT22;9999;48.780;9.146;2023-02-01T06:58:45;3.70;99.90
7512;DHT22;9999;48.780;9.146;2023-02-01T07:01:12;3.70;99.90
7512;DHT22;9999;48.780;9.146;2023-02-01T07:03:39;3.70;99.90
7512;DHT22;9999;48.780;9.146;2023-02-01T07:06:06;3.70;99.90
7512;DHT22;9999;48.780;9.146;2023-02-01T07:08:34;3.80;99.90
7512;DHT22;9999;48.780;9.146;2023-02-01T07:11:02;3.80;99.90
7512;DHT22;9999;48.780;9.146;2023-02-01T07:13:29;3.80;99.90
7512;DHT22;9999;48.780;9.146;2023-02-01T07:15:59;3.90;99.90
7512;DHT22;9999;48.780;9.146;2023-02-01T07:18:27;3.80;99.90
7512;DHT22;9999;48.780;9.146;2023-02-01T07:20:54;3.90;99.90
7512;DHT22;9999;48.780;9.146;2023-02-01T07:23:21;3.90;99.90
7512;DHT22;9999;48.780;9.146;2023-02-01T07:25:48;3.90;99.90
7512;DHT22;9999;48.780;9.146;2023-02-01T07:28:15;3.90;99.90
7512;DHT22;9999;48.780;9.146;2023-02-01T07:30:42;4.00;99.90
7512;DHT22;9999;48.780;9.146;2023-02-01T07:33:10;4.00;99.90
7512;DHT22;9999;48.780;9.146;2023-02-01T07:35:37;3.90;99.90
7512;DHT22;9999;48.780;9.146;2023-02-01T07:38:03;3.90;99.90
7512;DHT22;9999;48.780;9.146;2023-02-01T07:40:30;3.90;99.90
7512;DHT22;9999;48.780;9.146;2023-02-01T07:42:57;3.90;99.90
7512;DHT22;9999;48.780;9.146;2023-02-01T07:45:25;3.90;99.90
7512;DHT22;9999;48.780;9.146;2023-02-01T07:47:52;4.00;99.90
7512;DHT22;9999;48.780;9.146;2023-02-01T07:50:20;4.00;99.90
7512;DHT22;9999;48.780;9.146;2023-02-01T07:52:47;4.00;99.90
7512;DHT22;9999;48.780;9.146;2023-02-01T07:55:14;4.10;99.90
7512;DHT22;9999;48.780;9.146;2023-02-01T07:57:41;4.10;99.90
7512;DHT22;9999;48.780;9.146;2023-02-01T08:00:09;4.10;99.90
7512;DHT22;9999;48.780;9.146;2023-02-01T08:02:53;4.20;99.90
7512;DHT22;9999;48.780;9.146;2023-02-01T08:05:21;4.20;99.90
7512;DHT22;9999;48.780;9.146;2023-02-01T08:07:49;4.30;99.90
7512;DHT22;9999;48.780;9.146;2023-02-01T08:10:16;4.30;99.90
7512;DHT22;9999;48.780;9.146;2023-02-01T08:12:43;4.50;99.90
7512;DHT22;9999;48.780;9.146;2023-02-01T08:15:13;4.40;99.90
7512;DHT22;9999;48.780;9.146;2023-02-01T08:17:45;4.40;99.90
7512;DHT22;9999;48.780;9.146;2023-02-01T08:20:12;4.50;99.90
7512;DHT22;9999;48.780;9.146;2023-02-01T08:22:40;4.50;99.90
7512;DHT22;9999;48.780;9.146;2023-02-01T08:25:08;4.50;99.90
7512;DHT22;9999;48.780;9.146;2023-02-01T08:27:35;4.50;99.90
7512;DHT22;9999;48.780;9.146;2023-02-01T08:30:03;4.50;99.90
7512;DHT22;9999;48.780;9.146;2023-02-01T08:32:30;4.50;99.90
7512;DHT22;9999;48.780;9.146;2023-02-01T08:34:57;4.60;99.90
7512;DHT22;9999;48.780;9.146;2023-02-01T08:37:23;4.70;99.90
7512;DHT22;9999;48.780;9.146;2023-02-01T08:39:51;4.70;99.90
7512;DHT22;9999;48.780;9.146;2023-02-01T08:42:18;4.80;99.90
7512;DHT22;9999;48.780;9.146;2023-02-01T08:45:03;4.90;99.90
7512;DHT22;9999;48.780;9.146;2023-02-01T08:47:31;5.00;99.90
7512;DHT22;9999;48.780;9.146;2023-02-01T08:49:57;5.00;99.90
7512;DHT22;9999;48.780;9.146;2023-02-01T08:52:24;5.10;99.90
7512;DHT22;9999;48.780;9.146;2023-02-01T08:54:52;5.10;99.90
7512;DHT22;9999;48.780;9.146;2023-02-01T08:57:19;5.10;99.90
7512;DHT22;9999;48.780;9.146;2023-02-01T08:59:46;5.10;99.90
7512;DHT22;9999;48.780;9.146;2023-02-01T09:02:13;5.10;99.90
7512;DHT22;9999;48.780;9.146;2023-02-01T09:04:40;5.10;99.90
7512;DHT22;9999;48.780;9.146;2023-02-01T09:07:07;5.00;99.90
7512;DHT22;9999;48.780;9.146;2023-02-01T09:09:34;5.00;99.90
7512;DHT22;9999;48.780;9.146;2023-02-01T09:12:03;5.00;99.90
7512;DHT22;9999;48.780;9.146;2023-02-01T09:14:30;5.00;99.90
7512;DHT22;9999;48.780;9.146;2023-02-01T09:16:58;5.00;99.90
7512;DHT22;9999;48.780;9.146;2023-02-01T09:19:24;5.00;99.90
7512;DHT22;9999;48.780;9.146;2023-02-01T09:21:51;5.00;99.90
7512;DHT22;9999;48.780;9.146;2023-02-01T09:24:18;5.10;99.90
7512;DHT22;9999;48.780;9.146;2023-02-01T09:26:45;5.10;99.90
7512;DHT22;9999;48.780;9.146;2023-02-01T09:29:14;5.10;99.90
7512;DHT22;9999;48.780;9.146;2023-02-01T09:31:41;5.10;99.90
7512;DHT22;9999;48.780;9.146;2023-02-01T09:34:08;5.10;99.90
7512;DHT22;9999;48.780;9.146;2023-02-01T09:36:36;5.10;99.90
7512;DHT22;9999;48.780;9.146;2023-02-01T09:39:03;5.10;99.90
7512;DHT22;9999;48.780;9.146;2023-02-01T09:41:38;5.30;99.90
7512;DHT22;9999;48.780;9.146;2023-02-01T09:44:17;5.30;99.90
7512;DHT22;9999;48.780;9.146;2023-02-01T09:46:45;5.30;99.90
7512;DHT22;9999;48.780;9.146;2023-02-01T09:49:15;5.40;99.90
7512;DHT22;9999;48.780;9.146;2023-02-01T09:51:46;5.40;99.90
7512;DHT22;9999;48.780;9.146;2023-02-01T09:54:16;5.40;99.90
7512;DHT22;9999;48.780;9.146;2023-02-01T09:56:46;5.40;99.90
7512;DHT22;9999;48.780;9.146;2023-02-01T09:59:28;5.40;99.90
7512;DHT22;9999;48.780;9.146;2023-02-01T10:01:56;5.40;99.90
7512;DHT22;9999;48.780;9.146;2023-02-01T10:04:25;5.50;99.90
7512;DHT22;9999;48.780;9.146;2023-02-01T10:07:01;5.40;99.90
7512;DHT22;9999;48.780;9.146;2023-02-01T10:09:44;5.40;99.90
7512;DHT22;9999;48.780;9.146;2023-02-01T10:15:34;5.50;99.90
7512;DHT22;9999;48.780;9.146;2023-02-01T10:18:13;5.40;99.90
7512;DHT22;9999;48.780;9.146;2023-02-01T10:20:52;5.40;99.90
7512;DHT22;9999;48.780;9.146;2023-02-01T10:23:41;5.40;99.90
7512;DHT22;9999;48.780;9.146;2023-02-01T10:26:16;5.50;99.90
7512;DHT22;9999;48.780;9.146;2023-02-01T10:28:46;5.60;99.90
7512;DHT22;9999;48.780;9.146;2023-02-01T10:31:16;5.60;99.90
7512;DHT22;9999;48.780;9.146;2023-02-01T10:33:45;5.70;99.90
7512;DHT22;9999;48.780;9.146;2023-02-01T10:36:16;5.70;99.90
7512;DHT22;9999;48.780;9.146;2023-02-01T10:38:46;5.80;99.90
7512;DHT22;9999;48.780;9.146;2023-02-01T10:41:16;5.80;99.90
7512;DHT22;9999;48.780;9.146;2023-02-01T10:43:48;5.70;99.90
7512;DHT22;9999;48.780;9.146;2023-02-01T10:46:17;5.70;99.90
7512;DHT22;9999;48.780;9.146;2023-02-01T10:48:45;5.60;99.90
7512;DHT22;9999;48.780;9.146;2023-02-01T10:51:15;5.80;99.90
7512;DHT22;9999;48.780;9.146;2023-02-01T10:53:49;5.80;99.90
7512;DHT22;9999;48.780;9.146;2023-02-01T10:56:22;5.80;99.90
7512;DHT22;9999;48.780;9.146;2023-02-01T10:58:49;5.80;99.90
7512;DHT22;9999;48.780;9.146;2023-02-01T11:01:20;5.90;99.90
7512;DHT22;9999;48.780;9.146;2023-02-01T11:03:53;5.90;99.90
7512;DHT22;9999;48.780;9.146;2023-02-01T11:06:27;5.70;99.90
7512;DHT22;9999;48.780;9.146;2023-02-01T11:08:56;5.80;99.90
7512;DHT22;9999;48.780;9.146;2023-02-01T11:11:24;5.80;99.90
7512;DHT22;9999;48.780;9.146;2023-02-01T11:13:55;5.80;99.90
7512;DHT22;9999;48.780;9.146;2023-02-01T11:16:33;5.80;99.90
7512;DHT22;9999;48.780;9.146;2023-02-01T11:19:00;5.80;99.90
7512;DHT22;9999;48.780;9.146;2023-02-01T11:21:27;5.80;99.90
7512;DHT22;9999;48.780;9.146;2023-02-01T11:23:54;5.70;99.90
7512;DHT22;9999;48.780;9.146;2023-02-01T11:26:23;5.70;99.90
7512;DHT22;9999;48.780;9.146;2023-02-01T11:28:54;5.70;99.90
7512;DHT22;9999;48.780;9.146;2023-02-01T11:31:24;5.60;99.90
7512;DHT22;9999;48.780;9.146;2023-02-01T11:34:04;5.70;99.90
7512;DHT22;9999;48.780;9.146;2023-02-01T11:36:33;5.70;99.90
7512;DHT22;9999;48.780;9.146;2023-02-01T11:39:17;5.70;99.90
7512;DHT22;9999;48.780;9.146;2023-02-01T11:41:56;5.80;99.90
7512;DHT22;9999;48.780;9.146;2023-02-01T11:44:30;5.80;99.90
7512;DHT22;9999;48.780;9.146;2023-02-01T11:47:25;5.80;99.90
7512;DHT22;9999;48.780;9.146;2023-02-01T11:49:54;5.80;99.90
7512;DHT22;9999;48.780;9.146;2023-02-01T11:52:50;5.80;99.90
7512;DHT22;9999;48.780;9.146;2023-02-01T11:55:39;5.80;99.90
7512;DHT22;9999;48.780;9.146;2023-02-01T11:58:19;5.90;99.90
7512;DHT22;9999;48.780;9.146;2023-02-01T12:01:07;6.00;99.90
7512;DHT22;9999;48.780;9.146;2023-02-01T12:06:48;6.00;99.90
7512;DHT22;9999;48.780;9.146;2023-02-01T12:09:34;6.00;99.90
7512;DHT22;9999;48.780;9.146;2023-02-01T12:12:08;5.80;99.90
7512;DHT22;9999;48.780;9.146;2023-02-01T12:15:01;5.80;99.90
7512;DHT22;9999;48.780;9.146;2023-02-01T12:17:44;5.80;99.90
7512;DHT22;9999;48.780;9.146;2023-02-01T12:20:31;5.70;99.90
7512;DHT22;9999;48.780;9.146;2023-02-01T12:23:12;5.80;99.90
7512;DHT22;9999;48.780;9.146;2023-02-01T12:26:00;5.80;99.90
7512;DHT22;9999;48.780;9.146;2023-02-01T12:28:46;5.80;99.90
7512;DHT22;9999;48.780;9.146;2023-02-01T12:34:51;5.80;99.90
7512;DHT22;9999;48.780;9.146;2023-02-01T12:37:33;5.80;99.90
7512;DHT22;9999;48.780;9.146;2023-02-01T12:40:17;5.70;99.90
7512;DHT22;9999;48.780;9.146;2023-02-01T12:42:52;5.70;99.90
7512;DHT22;9999;48.780;9.146;2023-02-01T12:45:25;5.60;99.90
7512;DHT22;9999;48.780;9.146;2023-02-01T12:47:55;5.60;99.90
7512;DHT22;9999;48.780;9.146;2023-02-01T12:50:25;5.60;99.90
7512;DHT22;9999;48.780;9.146;2023-02-01T12:53:07;5.70;99.90
7512;DHT22;9999;48.780;9.146;2023-02-01T12:55:38;5.80;99.90
7512;DHT22;9999;48.780;9.146;2023-02-01T12:58:12;5.70;99.90
7512;DHT22;9999;48.780;9.146;2023-02-01T13:00:43;5.60;99.90
7512;DHT22;9999;48.780;9.146;2023-02-01T13:03:17;5.50;99.90
7512;DHT22;9999;48.780;9.146;2023-02-01T13:05:50;5.50;99.90
7512;DHT22;9999;48.780;9.146;2023-02-01T13:08:22;5.50;99.90
7512;DHT22;9999;48.780;9.146;2023-02-01T13:10:56;5.50;99.90
7512;DHT22;9999;48.780;9.146;2023-02-01T13:13:31;5.50;99.90
7512;DHT22;9999;48.780;9.146;2023-02-01T13:16:05;5.50;99.90
7512;DHT22;9999;48.780;9.146;2023-02-01T13:18:35;5.50;99.90
7512;DHT22;9999;48.780;9.146;2023-02-01T13:21:05;5.50;99.90
7512;DHT22;9999;48.780;9.146;2023-02-01T13:23:37;5.50;99.90
7512;DHT22;9999;48.780;9.146;2023-02-01T13:26:04;5.50;99.90
7512;DHT22;9999;48.780;9.146;2023-02-01T13:28:36;5.50;99.90
7512;DHT22;9999;48.780;9.146;2023-02-01T13:31:27;5.50;99.90
7512;DHT22;9999;48.780;9.146;2023-02-01T13:34:10;5.50;99.90
7512;DHT22;9999;48.780;9.146;2023-02-01T13:36:54;5.50;99.90
7512;DHT22;9999;48.780;9.146;2023-02-01T13:39:47;5.50;99.90
7512;DHT22;9999;48.780;9.146;2023-02-01T13:42:19;5.50;99.90
7512;DHT22;9999;48.780;9.146;2023-02-01T13:44:50;5.50;99.90
7512;DHT22;9999;48.780;9.146;2023-02-01T13:47:24;5.50;99.90
7512;DHT22;9999;48.780;9.146;2023-02-01T13:49:54;5.50;99.90
7512;DHT22;9999;48.780;9.146;2023-02-01T13:52:29;5.50;99.90
7512;DHT22;9999;48.780;9.146;2023-02-01T13:55:14;5.40;99.90
7512;DHT22;9999;48.780;9.146;2023-02-01T13:57:43;5.40;99.90
7512;DHT22;9999;48.780;9.146;2023-02-01T14:00:24;5.40;99.90
7512;DHT22;9999;48.780;9.146;2023-02-01T14:06:05;5.30;99.90
7512;DHT22;9999;48.780;9.146;2023-02-01T14:09:14;5.40;99.90
7512;DHT22;9999;48.780;9.146;2023-02-01T14:11:48;5.40;99.90
7512;DHT22;9999;48.780;9.146;2023-02-01T14:14:42;5.50;99.90
7512;DHT22;9999;48.780;9.146;2023-02-01T14:17:33;5.50;99.90
7512;DHT22;9999;48.780;9.146;2023-02-01T14:23:27;5.40;99.90
7512;DHT22;9999;48.780;9.146;2023-02-01T14:26:19;5.50;99.90
7512;DHT22;9999;48.780;9.146;2023-02-01T14:29:01;5.50;99.90
7512;DHT22;9999;48.780;9.146;2023-02-01T14:31:41;5.50;99.90
7512;DHT22;9999;48.780;9.146;2023-02-01T14:34:14;5.50;99.90
7512;DHT22;9999;48.780;9.146;2023-02-01T14:36:48;5.50;99.90
7512;DHT22;9999;48.780;9.146;2023-02-01T14:39:32;5.40;99.90
7512;DHT22;9999;48.780;9.146;2023-02-01T14:42:03;5.40;99.90
7512;DHT22;9999;48.780;9.146;2023-02-01T14:44:36;5.40;99.90
7512;DHT22;9999;48.780;9.146;2023-02-01T14:50:03;5.40;99.90
7512;DHT22;9999;48.780;9.146;2023-02-01T14:52:33;5.40;99.90
7512;DHT22;9999;48.780;9.146;2023-02-01T14:55:05;5.40;99.90
7512;DHT22;9999;48.780;9.146;2023-02-01T14:57:36;5.40;99.90
7512;DHT22;9999;48.780;9.146;2023-02-01T15:00:20;5.40;99.90
7512;DHT22;9999;48.780;9.146;2023-02-01T15:02:49;5.30;99.90
7512;DHT22;9999;48.780;9.146;2023-02-01T15:05:27;5.40;99.90
7512;DHT22;9999;48.780;9.146;2023-02-01T15:07:58;5.40;99.90
7512;DHT22;9999;48.780;9.146;2023-02-01T15:10:26;5.30;99.90
7512;DHT22;9999;48.780;9.146;2023-02-01T15:12:54;5.30;99.90
7512;DHT22;9999;48.780;9.146;2023-02-01T15:15:23;5.30;99.90
7512;DHT22;9999;48.780;9.146;2023-02-01T15:17:52;5.30;99.90
7512;DHT22;9999;48.780;9.146;2023-02-01T15:20:21;5.30;99.90
7512;DHT22;9999;48.780;9.146;2023-02-01T15:22:57;5.30;99.90
7512;DHT22;9999;48.780;9.146;2023-02-01T15:25:26;5.40;99.90
7512;DHT22;9999;48.780;9.146;2023-02-01T15:27:53;5.40;99.90
7512;DHT22;9999;48.780;9.146;2023-02-01T15:30:26;5.30;99.90
7512;DHT22;9999;48.780;9.146;2023-02-01T15:33:05;5.40;99.90
7512;DHT22;9999;48.780;9.146;2023-02-01T15:35:39;5.30;99.90
7512;DHT22;9999;48.780;9.146;2023-02-01T15:38:42;5.30;99.90
7512;DHT22;9999;48.780;9.146;2023-02-01T15:41:12;5.30;99.90
7512;DHT22;9999;48.780;9.146;2023-02-01T15:43:41;5.30;99.90
7512;DHT22;9999;48.780;9.146;2023-02-01T15:46:12;5.30;99.90
7512;DHT22;9999;48.780;9.146;2023-02-01T15:48:43;5.40;99.90
7512;DHT22;9999;48.780;9.146;2023-02-01T15:51:16;5.40;99.90
7512;DHT22;9999;48.780;9.146;2023-02-01T15:53:48;5.40;99.90
7512;DHT22;9999;48.780;9.146;2023-02-01T15:56:20;5.30;99.90
7512;DHT22;9999;48.780;9.146;2023-02-01T15:58:51;5.30;99.90
7512;DHT22;9999;48.780;9.146;2023-02-01T16:01:20;5.30;99.90
7512;DHT22;9999;48.780;9.146;2023-02-01T16:03:48;5.30;99.90
7512;DHT22;9999;48.780;9.146;2023-02-01T16:06:30;5.40;99.90
7512;DHT22;9999;48.780;9.146;2023-02-01T16:09:12;5.30;99.90
7512;DHT22;9999;48.780;9.146;2023-02-01T16:11:48;5.30;99.90
7512;DHT22;9999;48.780;9.146;2023-02-01T16:14:16;5.30;99.90
7512;DHT22;9999;48.780;9.146;2023-02-01T16:16:44;5.40;99.90
7512;DHT22;9999;48.780;9.146;2023-02-01T16:19:10;5.40;99.90
7512;DHT22;9999;48.780;9.146;2023-02-01T16:21:37;5.40;99.90
7512;DHT22;9999;48.780;9.146;2023-02-01T16:24:04;5.30;99.90
7512;DHT22;9999;48.780;9.146;2023-02-01T16:26:32;5.40;99.90
7512;DHT22;9999;48.780;9.146;2023-02-01T16:28:59;5.40;99.90
7512;DHT22;9999;48.780;9.146;2023-02-01T16:31:33;5.30;99.90
7512;DHT22;9999;48.780;9.146;2023-02-01T16:34:03;5.30;99.90
7512;DHT22;9999;48.780;9.146;2023-02-01T16:36:31;5.30;99.90
7512;DHT22;9999;48.780;9.146;2023-02-01T16:38:58;5.30;99.90
7512;DHT22;9999;48.780;9.146;2023-02-01T16:41:26;5.30;99.90
7512;DHT22;9999;48.780;9.146;2023-02-01T16:43:54;5.30;99.90
7512;DHT22;9999;48.780;9.146;2023-02-01T16:46:24;5.20;99.90
7512;DHT22;9999;48.780;9.146;2023-02-01T16:48:54;5.30;99.90
7512;DHT22;9999;48.780;9.146;2023-02-01T16:51:24;5.30;99.90
7512;DHT22;9999;48.780;9.146;2023-02-01T16:53:51;5.30;99.90
7512;DHT22;9999;48.780;9.146;2023-02-01T16:56:21;5.30;99.90
7512;DHT22;9999;48.780;9.146;2023-02-01T16:58:48;5.30;99.90
7512;DHT22;9999;48.780;9.146;2023-02-01T17:01:17;5.20;99.90
7512;DHT22;9999;48.780;9.146;2023-02-01T17:03:45;5.20;99.90